Terminal Aerodrome Forecast
Issued by NWS Wilmington, OH

Current Version | Previous Version | Text Only | Print | Product List | Glossary Off
Versions: 1 2 3 4 5 6 7 8 9 10 11 12 13 14 15 16 17 18 19 20 21 22 23 24 25

509
FTUS41 KILN 241734
TAFILN
TAF
KILN 241734Z 2418/2518 26008KT P6SM SCT035 BKN200
     FM250100 VRB03KT P6SM BKN250
      TEMPO 2509/2512 4SM BR
     FM251300 24006KT P6SM BKN250
     FM251600 25008KT P6SM VCTS BKN040CB=

USA.gov is the U.S. government's official web portal to all federal, state and local government web resources and services.